Tiempo atmosférico en la estación meteorológica de Cuéllar, Segovia (795 m.)



Fecha
DESCASC
Temp. máxima en grados centígrados (hora)
DESCASC
Temp. mínima en grados centígrados (hora)
DESCASC
Temp. media en grados centígrados
DESCASC
Racha de viento máxima en m/sg (hora)
DESCASC
Velocidad máxima media en intervalos de 10 minutos(hora)
DESCASC
Precipitaciones diarias en mm
DESCASC
Precipitaciones de 00:00 a 06:00 en mm
DESCASC
Precipitaciones de 06:00 a 12:00 en mm
DESCASC
Precipitaciones de 12:00 a 18:00 en mm
DESCASC
Precipitaciones de 18:00 a 24:00 en mm
DESCASC
16-01-2020 14.4 (15:20) -1.3 (06:30) 6.5 10.83 (14:00) 6.94 (14:30) 0.8 0 0 0 0.8
15-01-2020 10.5 (15:50) -0.1 (07:10) 5.2 5.83 (16:10) 2.78 (16:00) 0.8 0 0.2 0.6 0
14-01-2020 11.1 (16:30) -7 (05:50) 2.1 6.94 (16:00) 3.89 (14:40) 0 0 0 0 0
13-01-2020 9.9 (17:00) -7.3 (09:00) 1.3 4.72 (15:00) 2.78 (15:20) 0.2 0 0.2 0 0
12-01-2020 11.8 (15:20) -9.6 (07:50) 1.1 2.78 (18:30) 1.67 (18:30) 0.2 0 0.2 0 0
11-01-2020 1 (15:00) -6.1 (-00:0) -2.5 3.61 (03:00) 1.67 (03:40) 0 0 0 0 0
10-01-2020 9.6 (14:50) -4.3 (-00:0) 2.7 10 (14:30) 6.67 (14:20) 0 0 0 0 0
09-01-2020 11.9 (16:10) -4.6 (-00:0) 3.6 6.39 (15:30) 3.89 (15:30) 0.2 0 0.2 0 0
08-01-2020 12.3 (16:30) -6.4 (-00:0) 3 3.61 (15:10) 2.5 (12:50) 0 0 0 0 0
07-01-2020 7.5 (16:00) -6.1 (-00:0) 0.7 3.33 (14:20) 2.22 (16:50) 0.2 0 0.2 0 0
06-01-2020 7.5 (16:50) -3.6 (-00:0) 2 3.33 (16:30) 2.22 (14:30) 0 0 0 0 0
05-01-2020 1.4 (16:30) -5.1 (-00:0) -1.8 2.22 (01:30) 1.94 (01:20) 0.2 0 0 0 0.2
04-01-2020 9.6 (13:50) -4.4 (-00:0) 2.6 6.11 (20:00) 5 (19:40) 0 0 0 0 0
03-01-2020 6.7 (17:00) -4.7 (-00:0) 1 2.22 (16:40) 1.39 (08:50) 0 0 0 0 0
02-01-2020 13.9 (14:10) -7.7 (-00:0) 3.1 -- (--) -- (--) 0 0 0 0 0
01-01-2020 14.2 (14:10) -7.5 (-00:0) 3.3 -- (--) -- (--) 0 0 0 0 0
31-12-2019 16.5 (15:40) -6.7 (-00:0) 4.9 2.5 (03:10) 1.94 (03:10) 0 0 0 0 0
30-12-2019 -- (--) -- (--) -- -- (--) -- (--) -- 0 0 -- 0
29-12-2019 17.3 (14:40) -6.1 (-00:0) 5.6 2.78 (16:50) 2.22 (16:50) 0.2 0 0.2 0 0
28-12-2019 13.8 (15:50) -4.9 (-00:0) 4.5 4.72 (12:50) 3.61 (13:00) 0.2 0 0.2 0 0
27-12-2019 1.3 (15:20) -3 (-00:0) -0.9 3.89 (04:50) 2.5 (07:40) 0 0 0 0 0
26-12-2019 13.6 (14:20) -1.8 (-00:0) 5.9 4.72 (09:30) 3.89 (19:40) 0 0 0 0 0
25-12-2019 16.7 (15:10) -1.7 (-00:0) 7.5 3.61 (06:50) 2.78 (06:50) 0 0 0 0 0
24-12-2019 16.3 (15:30) 0.6 (08:00) 8.4 2.5 (11:30) 1.94 (21:50) 0 0 0 0 0
23-12-2019 13 (14:40) -1.5 (-00:0) 5.8 7.22 (13:10) 4.17 (13:00) 0 0 0 0 0
22-12-2019 12.2 (15:50) 5.2 (23:59) 8.7 18.89 (14:10) 9.44 (14:10) 2.2 0 0.8 1.4 0
21-12-2019 15.8 (14:20) 7.6 (23:00) 11.7 26.39 (16:30) 13.33 (16:30) 6 1.4 3.2 0.2 1.2
20-12-2019 12 (02:40) 6.2 (00:00) 9.1 14.17 (22:20) 7.78 (22:20) 35.4 12.4 5.4 2 15.6

Gráficas

Temp. máximas Temp. mínimas Temp. medias Precipitaciones Rachas de viento máximas Velocidades máximas media en intervalos de 10 minutos

Datos horarios

Fecha y hora oficial Temperatura (ºC) Velocidad del viento (km/h) Dirección del viento Racha (km/h) Dirección de racha Precipitación (mm) Presión (hPa) Tendencia (hPa) Humedad (%)
2020-01-18 23:00:00 4.9 9 Oeste 17 Oeste 0 -- -- 86
2020-01-18 22:00:00 4.9 4 Oeste 21 Oeste 0 -- -- 90
2020-01-18 21:00:00 6.7 14 Oeste 28 Oeste 0 -- -- 84
2020-01-18 20:00:00 7.5 15 Oeste 52 Noroeste 0.6 -- -- 86
2020-01-18 19:00:00 8.6 17 Oeste 37 Oeste 2 -- -- 95
2020-01-18 18:00:00 10.9 19 Sudoeste 40 Sudoeste 0 -- -- 80
2020-01-18 17:00:00 11.8 21 Sudoeste 42 Sudoeste 0 -- -- 77
2020-01-18 16:00:00 11.5 18 Sudoeste 47 Sudoeste 0.2 -- -- 78
2020-01-18 15:00:00 11.2 17 Sudoeste 33 Sur 0 -- -- 80
2020-01-18 14:00:00 9.9 9 Sudoeste 28 Sur 0 -- -- 90
2020-01-18 13:00:00 9.5 4 Sur 8 Sur 0 -- -- 88
2020-01-18 12:00:00 7.1 0 Calma 10 Sur 0.4 -- -- 93
2020-01-18 11:00:00 6.3 2 Sudeste 8 Este 0 -- -- 90
2020-01-18 10:00:00 4.6 4 Este 9 Este 0 -- -- 94
2020-01-18 09:00:00 3.2 0 Calma 6 Este 0 -- -- 97
2020-01-18 08:00:00 2.3 3 Este 10 Sudeste 0 -- -- 98
2020-01-18 07:00:00 2.1 3 Este 9 Este 0 -- -- 95
2020-01-18 06:00:00 1.5 3 Este 7 Sudeste 0 -- -- 98
2020-01-18 05:00:00 0.9 3 Este 8 Nordeste 0 -- -- 98
2020-01-18 04:00:00 0.5 5 Este 13 Sudeste 0 -- -- 98
2020-01-18 03:00:00 0.1 4 Este 9 Este 0 -- -- 98
2020-01-18 02:00:00 -0.2 0 Calma 9 Sudoeste 0 -- -- 97
2020-01-18 01:00:00 2 3 Norte 15 Nordeste 0 -- -- 90
2020-01-18 00:00:00 0.8 4 Este 9 Este 0 -- -- 98
2020-01-17 23:00:00 0.7 4 Este 10 Este 0 -- -- 98
2020-01-17 22:00:00 -0.1 5 Este 11 Este 0 -- -- 98
2020-01-17 21:00:00 0.3 0 Calma 7 Este 0 -- -- 96
2020-01-17 20:00:00 1 4 Este 6 Sudeste 0 -- -- 93
2020-01-17 19:00:00 4 2 Nordeste 5 Norte 0 -- -- 89
2020-01-17 18:00:00 7.1 0 Calma 15 Oeste 0 -- -- 73
2020-01-17 17:00:00 8.8 10 Oeste 21 Oeste 0 -- -- 66
2020-01-17 16:00:00 9.1 12 Oeste 25 Oeste 0 -- -- 66
2020-01-17 15:00:00 9.3 15 Oeste 34 Oeste 0 -- -- 65
2020-01-17 14:00:00 8.8 18 Oeste 37 Sudoeste 0 -- -- 66
2020-01-17 13:00:00 8.9 18 Oeste 31 Oeste 0 -- -- 77
2020-01-17 12:00:00 8.1 14 Oeste 30 Oeste 0 -- -- 83
2020-01-17 11:00:00 6.7 9 Sudoeste 17 Oeste 0 -- -- 97
2020-01-17 10:00:00 5.8 6 Sudoeste 16 Oeste 0.2 -- -- 98
2020-01-17 09:00:00 5.5 7 Sudoeste 17 Oeste 0.6 -- -- 99
2020-01-17 08:00:00 5.3 4 Oeste 9 Oeste 0.6 -- -- 98
2020-01-17 07:00:00 5.2 3 Sudoeste 9 Sudoeste 1 -- -- 98
2020-01-17 06:00:00 5.6 6 Oeste 15 Oeste 0.2 -- -- 93
2020-01-17 05:00:00 5.4 4 Oeste 10 Oeste 0 -- -- 94
2020-01-17 04:00:00 3.9 2 Sur 6 Oeste 0 -- -- 96
2020-01-17 03:00:00 6.1 0 Calma 7 Oeste 0 -- -- 93
2020-01-17 02:00:00 5.7 0 Calma 8 Oeste 0.4 -- -- 94
2020-01-17 01:00:00 6.9 5 Oeste 16 Sudoeste 0.2 -- -- 84
2020-01-17 00:00:00 7.7 8 Sur 21 Sudoeste 0 -- -- 76
2020-01-16 23:00:00 7.7 7 Sudoeste 16 Sudoeste 0.2 -- -- 74
2020-01-16 22:00:00 6.2 3 Sur 34 Sudoeste 0.6 -- -- 88
2020-01-16 21:00:00 9.4 8 Sudoeste 28 Sur 0 -- -- 67
2020-01-16 20:00:00 9.4 13 Sur 27 Sur 0 -- -- 65
2020-01-16 19:00:00 8.9 4 Sur 22 Sur 0 -- -- 66
2020-01-16 18:00:00 10.4 14 Sur 29 Sur 0 -- -- 60
2020-01-16 17:00:00 12.7 10 Sudoeste 27 Sur 0 -- -- 56
2020-01-16 16:00:00 13.6 19 Sur 35 Sur 0 -- -- 48
2020-01-16 15:00:00 14.2 19 Sur 39 Sur 0 -- -- 49
2020-01-16 14:00:00 13.9 23 Sudoeste 39 Sur 0 -- -- 54
2020-01-16 13:00:00 13.8 17 Sur 28 Sur 0 -- -- 65
2020-01-16 12:00:00 10.1 6 Oeste 10 Oeste 0 -- -- 83
2020-01-16 11:00:00 7 3 Sudeste 9 Este 0 -- -- 95
2020-01-16 10:00:00 3 0 Calma 5 Este 0 -- -- 100
2020-01-16 09:00:00 0.6 2 Este 5 Este 0 -- -- 100
2020-01-16 08:00:00 -0.4 3 Este 9 Este 0 -- -- 100
2020-01-16 07:00:00 -0.8 2 Este 10 Sudeste 0 -- -- 100
2020-01-16 06:00:00 0.1 0 Calma 6 Sur 0 -- -- 100
2020-01-16 05:00:00 0.5 3 Nordeste 9 Este 0 -- -- 100
2020-01-16 04:00:00 1.7 2 Sudeste 6 Sudeste 0 -- -- 100
2020-01-16 03:00:00 1.4 3 Este 6 Nordeste 0 -- -- 99
2020-01-16 02:00:00 1.8 4 Este 9 Este 0 -- -- 98
2020-01-16 01:00:00 3.8 3 Nordeste 11 Nordeste 0 -- -- 97
2020-01-16 00:00:00 2.9 4 Nordeste 9 Este 0 -- -- 97
2020-01-15 23:00:00 4.5 4 Nordeste 10 Este 0 -- -- 95
2020-01-15 22:00:00 7.1 6 Este 7 Este 0 -- -- 93
2020-01-15 21:00:00 7.8 0 Calma 4 Sudoeste 0 -- -- 95
2020-01-15 20:00:00 8.8 3 Oeste 10 Sudoeste 0 -- -- 90
2020-01-15 19:00:00 9.2 6 Sudoeste 15 Sudoeste 0 -- -- 87
2020-01-15 18:00:00 9.5 3 Sudoeste 9 Sudoeste 0 -- -- 84
2020-01-15 17:00:00 10.1 6 Sudoeste 21 Sudoeste 0 -- -- 82
2020-01-15 16:00:00 10 10 Sudoeste 19 Sudoeste 0 -- -- 81
2020-01-15 15:00:00 9 5 Sur 10 Sur 0 -- -- 86
2020-01-15 14:00:00 7.3 3 Sudoeste 10 Oeste 0 -- -- 93
2020-01-15 13:00:00 6.9 6 Oeste 12 Oeste 0.6 -- -- 94
2020-01-15 12:00:00 7.8 4 Sudoeste 16 Sudoeste 0.2 -- -- 83
2020-01-15 11:00:00 8.2 8 Sur 18 Sudoeste 0 -- -- 71
2020-01-15 10:00:00 6 3 Oeste 5 Sur 0 -- -- 77
2020-01-15 09:00:00 4.1 2 Este 11 Nordeste 0 -- -- 86
2020-01-15 08:00:00 2.8 10 Nordeste 11 Nordeste 0 -- -- 98
2020-01-15 07:00:00 0.4 0 Calma 4 Nordeste 0 -- -- 96
2020-01-15 06:00:00 1.6 0 Calma 4 Nordeste 0 -- -- 94
2020-01-15 05:00:00 2.4 0 Calma 5 Sur 0 -- -- 94
2020-01-15 04:00:00 3.2 0 Calma 7 Sur 0 -- -- 93
2020-01-15 03:00:00 1.7 0 Calma 6 Sudeste 0 -- -- 97
2020-01-15 02:00:00 1.7 0 Calma 2 Sudeste 0 -- -- 96
2020-01-15 01:00:00 1.7 0 Calma 0 Calma 0 -- -- 95
2020-01-15 00:00:00 1.4 0 Calma 5 Nordeste 0 -- -- 94
2020-01-14 23:00:00 1.3 4 Este 10 Este 0 -- -- 95
2020-01-14 22:00:00 2.3 6 Este 8 Este 0 -- -- 93
2020-01-14 21:00:00 2 5 Este 10 Oeste 0 -- -- 94
2020-01-14 20:00:00 0.6 5 Oeste 12 Oeste 0 -- -- 98
2020-01-14 19:00:00 4 0 Calma 23 Sudoeste 0 -- -- 81
2020-01-14 18:00:00 8.1 12 Sudoeste 23 Sudoeste 0 -- -- 71
2020-01-14 17:00:00 9.5 8 Sudoeste 24 Sur 0 -- -- 64
2020-01-14 16:00:00 10.2 11 Sudoeste 25 Sur 0 -- -- 60
2020-01-14 15:00:00 8.2 10 Sur 22 Sur 0 -- -- 64
2020-01-14 14:00:00 9 13 Sur 23 Sur 0 -- -- 62
2020-01-14 13:00:00 8.9 4 Sur 18 Sur 0 -- -- 60
2020-01-14 12:00:00 5.9 8 Sur 15 Sur 0 -- -- 69
2020-01-14 11:00:00 4.2 3 Sudeste 7 Sudeste 0 -- -- 77
2020-01-14 10:00:00 -0.3 3 Este 4 Este 0 -- -- 93
2020-01-14 09:00:00 -3.9 -- -- -- -- 0 -- -- 98
2020-01-14 08:00:00 -3 0 Calma 3 Sudeste 0 -- -- 97
2020-01-14 07:00:00 -4.2 0 Calma 8 Este 0 -- -- 97
2020-01-14 06:00:00 -6.5 2 Este 5 Este 0 -- -- 97
2020-01-14 05:00:00 -6.6 4 Este 5 Este 0 -- -- 96
2020-01-14 04:00:00 -6.3 3 Sudeste 4 Sudeste 0 -- -- 96
2020-01-14 03:00:00 -5.6 0 Calma 5 Oeste 0 -- -- 93
2020-01-14 02:00:00 -5.6 0 Calma 5 Sudeste 0 -- -- 97
2020-01-14 01:00:00 -5.8 0 Calma 3 Este 0 -- -- 97
2020-01-14 00:00:00 -5.2 0 Calma 4 Este 0 -- -- 95
2020-01-13 23:00:00 -5 0 Calma 4 Este 0 -- -- 96
2020-01-13 22:00:00 -4.5 0 Calma 3 Este 0 -- -- 95
2020-01-13 21:00:00 -3.5 2 Este 6 Este 0 -- -- 95
2020-01-13 20:00:00 -2.3 3 Este 6 Nordeste 0 -- -- 90
2020-01-13 19:00:00 0.5 3 Norte 5 Norte 0 -- -- 81
2020-01-13 18:00:00 7.1 5 Sur 15 Sur 0 -- -- 60
2020-01-13 17:00:00 9.9 6 Sudoeste 17 Sur 0 -- -- 52
2020-01-13 16:00:00 9.2 5 Sudoeste 16 Sur 0 -- -- 60
2020-01-13 15:00:00 6.7 9 Sudoeste 17 Sudoeste 0 -- -- 68
2020-01-13 14:00:00 4.9 5 Sudoeste 13 Sudoeste 0 -- -- 71
2020-01-13 13:00:00 2.8 7 Sudoeste 13 Sudoeste 0 -- -- 80
2020-01-13 12:00:00 1.1 2 Sudoeste 4 Sudoeste 0.2 -- -- 91
2020-01-13 11:00:00 -2 0 Calma 2 Este 0 -- -- 93
2020-01-13 10:00:00 -4.2 0 Calma 2 Este 0 -- -- 95
2020-01-13 09:00:00 -7.3 0 Calma 2 Este 0 -- -- 95
2020-01-13 08:00:00 -6.5 2 Este 4 Este 0 -- -- 96
2020-01-13 07:00:00 -5.4 2 Este 3 Este 0 -- -- 96
2020-01-13 06:00:00 -4.8 0 Calma 3 Oeste 0 -- -- 97
2020-01-13 05:00:00 -5.5 0 Calma 2 Oeste 0 -- -- 97
2020-01-13 04:00:00 -5.4 0 Calma 2 Sudeste 0 -- -- 97
2020-01-13 03:00:00 -4.5 0 Calma 2 Sur 0 -- -- 98
2020-01-13 02:00:00 -5.1 0 Calma 2 Sudeste 0 -- -- 97
2020-01-13 01:00:00 -4.6 0 Calma 2 Este 0 -- -- 97
2020-01-13 00:00:00 -4 0 Calma 2 Oeste 0 -- -- 98
2020-01-12 23:00:00 -3.6 0 Calma 2 Oeste 0 -- -- 99
2020-01-12 22:00:00 -3.9 0 Calma 2 Oeste 0 -- -- 98
2020-01-12 21:00:00 -4 0 Calma 2 Noroeste 0 -- -- 95
2020-01-12 20:00:00 -1.6 0 Calma 4 Este 0 -- -- 88
2020-01-12 19:00:00 2.5 3 Nordeste 10 Noroeste 0 -- -- 80
2020-01-12 18:00:00 6.4 5 Oeste 9 Oeste 0 -- -- 65
2020-01-12 17:00:00 9.8 5 Oeste 8 Oeste 0 -- -- 45
2020-01-12 16:00:00 10.3 5 Oeste 8 Noroeste 0 -- -- 41
2020-01-12 15:00:00 9.9 4 Oeste 9 Noroeste 0 -- -- 44
2020-01-12 14:00:00 9.9 0 Calma 5 Este 0 -- -- 52
2020-01-12 13:00:00 7.3 3 Noroeste 9 Norte 0 -- -- 68
2020-01-12 12:00:00 3.9 3 Este 5 Este 0 -- -- 94
2020-01-12 11:00:00 0.6 0 Calma 3 Este 0.2 -- -- 93
2020-01-12 10:00:00 -4.5 0 Calma -- -- 0 -- -- 95
2020-01-12 09:00:00 -8.3 0 Calma -- -- 0 -- -- 95
2020-01-12 08:00:00 -9.3 0 Calma -- -- 0 -- -- 95
2020-01-12 07:00:00 -8.7 0 Calma -- -- 0 -- -- 95
2020-01-12 06:00:00 -6.9 0 Calma -- -- 0 -- -- 95
2020-01-12 05:00:00 -5.6 0 Calma -- -- 0 -- -- 97
2020-01-12 04:00:00 -4.7 0 Calma -- -- 0 -- -- 98
2020-01-12 03:00:00 -4.6 0 Calma -- -- 0 -- -- 98
2020-01-12 02:00:00 -4.2 0 Calma -- -- 0 -- -- 98
2020-01-12 01:00:00 -4 0 Calma -- -- 0 -- -- 98
2020-01-12 00:00:00 -3.4 0 Calma 6 Este 0 -- -- 99
2020-01-11 23:00:00 -2.9 5 Este 8 Este 0 -- -- 99
2020-01-11 22:00:00 -1.6 3 Este 10 Este 0 -- -- 100
2020-01-11 21:00:00 -1.1 4 Este 10 Este 0 -- -- 100
2020-01-11 20:00:00 -0.6 2 Norte 9 Nordeste 0 -- -- 100
2020-01-11 19:00:00 -0.3 6 Este 10 Este 0 -- -- 99
2020-01-11 18:00:00 0.2 4 Nordeste 8 Nordeste 0 -- -- 99
2020-01-11 17:00:00 0.5 2 Sur 8 Sudeste 0 -- -- 99
2020-01-11 16:00:00 0.7 3 Sur 8 Oeste 0 -- -- 100
2020-01-11 15:00:00 1 2 Noroeste 7 Oeste 0 -- -- 100
2020-01-11 14:00:00 0.6 0 Calma 6 Sur 0 -- -- 99
2020-01-11 13:00:00 -0.1 3 Sur 8 Sur 0 -- -- 99
2020-01-11 12:00:00 -0.6 0 Calma 6 Oeste 0 -- -- 100
2020-01-11 11:00:00 -0.8 0 Calma 6 Sudoeste 0 -- -- 100
2020-01-11 10:00:00 -1.3 3 Sur 5 Sur 0 -- -- 99
2020-01-11 09:00:00 -1.9 2 Sudeste 5 Este 0 -- -- 99
2020-01-11 08:00:00 -2.6 2 Sudeste 3 Este 0 -- -- 99
2020-01-11 07:00:00 -3.2 3 Este 3 Este 0 -- -- 98
2020-01-11 06:00:00 -3.9 0 Calma 4 Este 0 -- -- 98
2020-01-11 05:00:00 -6.1 0 Calma 5 Este 0 -- -- 98
2020-01-11 04:00:00 -5.2 3 Sudeste 13 Sudeste 0 -- -- 96
2020-01-11 03:00:00 -1.8 4 Este 13 Este -- -- -- 100
2020-01-11 02:00:00 -5.1 3 Sudeste 9 Sudeste 0 -- -- 97
2020-01-11 01:00:00 -3.2 0 Calma 6 Sudeste 0 -- -- 98
2020-01-11 00:00:00 -2.6 0 Calma 8 Sudeste 0 -- -- 98
2020-01-10 23:00:00 -0.8 3 Norte 11 Este 0 -- -- 97
2020-01-10 22:00:00 0.2 6 Nordeste 17 Nordeste 0 -- -- 93
2020-01-10 21:00:00 1.8 8 Nordeste 16 Norte 0 -- -- 90
2020-01-10 20:00:00 1.2 9 Este 22 Norte 0 -- -- 92
2020-01-10 19:00:00 3.8 11 Norte 19 Norte 0 -- -- 80
2020-01-10 18:00:00 5.9 8 Nordeste 18 Norte 0 -- -- 72
2020-01-10 17:00:00 7.5 11 Nordeste 26 Norte 0 -- -- 67
2020-01-10 16:00:00 7.5 18 Nordeste 32 Nordeste 0 -- -- 64
2020-01-10 15:00:00 8.6 19 Norte 36 Norte 0 -- -- 59
2020-01-10 14:00:00 9.1 21 Norte 32 Nordeste 0 -- -- 58
2020-01-10 13:00:00 8.3 19 Nordeste 29 Norte 0 -- -- 65
2020-01-10 12:00:00 7 0 Calma 5 Norte 0 -- -- 73
2020-01-10 11:00:00 4.9 0 Calma 6 Oeste 0 -- -- 78
2020-01-10 10:00:00 0.2 4 Oeste 9 Sudoeste 0 -- -- 96
2020-01-10 09:00:00 -2.1 3 Este 12 Este 0 -- -- 100
2020-01-10 08:00:00 -3.7 2 Nordeste 4 Norte 0 -- -- 99
2020-01-10 07:00:00 -2.5 2 Sudeste 7 Sudeste 0 -- -- 98
2020-01-10 06:00:00 -1.8 0 Calma 13 Este 0 -- -- 100
2020-01-10 05:00:00 -4 0 Calma 6 Oeste 0 -- -- 99
2020-01-10 04:00:00 -3.1 2 Oeste 5 Oeste 0 -- -- 97
2020-01-10 03:00:00 -0.7 2 Oeste 5 Noroeste 0 -- -- 99
2020-01-10 02:00:00 0.5 3 Noroeste 7 Oeste 0 -- -- 97
2020-01-10 01:00:00 3.4 4 Oeste 19 Oeste 0 -- -- 93
2020-01-10 00:00:00 5.7 13 Oeste 22 Oeste 0 -- -- 93
2020-01-09 23:00:00 6.4 11 Oeste 18 Oeste 0 -- -- 91
2020-01-09 22:00:00 7.7 12 Oeste 20 Sudoeste 0 -- -- 91
2020-01-09 21:00:00 7.7 7 Oeste 22 Sudoeste 0 -- -- 94
2020-01-09 20:00:00 9.3 10 Sudoeste 21 Sur 0 -- -- 89
2020-01-09 19:00:00 9 4 Oeste 14 Sudoeste 0 -- -- 93
2020-01-09 18:00:00 9.6 7 Oeste 17 Sudoeste 0 -- -- 92
2020-01-09 17:00:00 10.4 12 Sudoeste 22 Sudoeste 0 -- -- 83
2020-01-09 16:00:00 11.7 12 Sur 23 Sudoeste 0 -- -- 77
2020-01-09 15:00:00 10.4 13 Oeste 22 Sudoeste 0 -- -- 72
2020-01-09 14:00:00 9.1 7 Sur 14 Oeste 0 -- -- 69
2020-01-09 13:00:00 6.9 5 Oeste 9 Oeste 0 -- -- 72
2020-01-09 12:00:00 4.7 0 Calma 6 Oeste 0 -- -- 82
2020-01-09 11:00:00 2.4 2 Este 9 Este 0.2 -- -- 90
2020-01-09 10:00:00 1 3 Este 4 Este 0 -- -- 97
2020-01-09 09:00:00 -4.3 3 Norte 4 Norte 0 -- -- 98
2020-01-09 08:00:00 -4.2 3 Sudeste 6 Este 0 -- -- 98
2020-01-09 07:00:00 -3.3 4 Este 8 Este 0 -- -- 100
2020-01-09 06:00:00 -3.2 0 Calma 2 Este 0 -- -- 99
2020-01-09 05:00:00 -3.2 0 Calma 4 Este 0 -- -- 100
2020-01-09 04:00:00 -2.8 3 Este 6 Este 0 -- -- 99
2020-01-09 03:00:00 -2.7 5 Este 6 Este 0 -- -- 100
2020-01-09 02:00:00 -3.2 4 Sudeste -- -- 0 -- -- 99
2020-01-09 01:00:00 -3.1 3 Este 3 Este 0 -- -- 98
2020-01-09 00:00:00 -3.1 -- -- -- -- 0 -- -- 98
2020-01-08 23:00:00 -2.2 0 Calma 3 Nordeste 0 -- -- 99
2020-01-08 22:00:00 -1.5 0 Calma 7 Este 0 -- -- 98
2020-01-08 21:00:00 -1.2 5 Este 6 Este 0 -- -- 96
2020-01-08 20:00:00 0.1 0 Calma 5 Sudeste 0 -- -- 92
2020-01-08 19:00:00 4.1 5 Oeste 7 Noroeste 0 -- -- 81
2020-01-08 18:00:00 7.4 2 Oeste 6 Oeste 0 -- -- 70
2020-01-08 17:00:00 11 5 Oeste 10 Sudoeste 0 -- -- 59
2020-01-08 16:00:00 11.7 6 Oeste 13 Oeste 0 -- -- 55
2020-01-08 15:00:00 11.1 4 Oeste 10 Oeste 0 -- -- 50
2020-01-08 14:00:00 9.5 5 Oeste 12 Sudoeste 0 -- -- 57
2020-01-08 13:00:00 5.9 8 Oeste 12 Oeste 0 -- -- 77
2020-01-08 12:00:00 3.7 4 Oeste 5 Oeste 0 -- -- 92
2020-01-08 11:00:00 1.7 0 Calma 3 Sudeste 0 -- -- 91
2020-01-08 10:00:00 -2.8 0 Calma 2 Sudeste 0 -- -- 97
2020-01-08 09:00:00 -6 0 Calma -- -- 0 -- -- 96
2020-01-08 08:00:00 -5.9 0 Calma 0 Calma 0 -- -- 97
2020-01-08 07:00:00 -6.2 0 Calma -- -- 0 -- -- 97
2020-01-08 06:00:00 -5.1 0 Calma 2 Sudeste 0 -- -- 98
2020-01-08 05:00:00 -4.9 2 Sudeste 4 Este 0 -- -- 98
2020-01-08 04:00:00 -4.2 0 Calma 2 Este 0 -- -- 98
2020-01-08 03:00:00 -4.1 0 Calma 2 Nordeste 0 -- -- 98
2020-01-08 02:00:00 -4 0 Calma 3 Este 0 -- -- 98
2020-01-08 01:00:00 -4 0 Calma 2 Nordeste 0 -- -- 98
2020-01-08 00:00:00 -3.4 0 Calma 2 Norte 0 -- -- 98
2020-01-07 23:00:00 -3.3 0 Calma 2 Noroeste 0 -- -- 99
2020-01-07 22:00:00 -2.9 0 Calma 5 Oeste 0 -- -- 99
2020-01-07 21:00:00 -2.6 2 Oeste 4 Oeste 0 -- -- 99
2020-01-07 20:00:00 -2.7 0 Calma 6 Nordeste 0 -- -- 97
2020-01-07 19:00:00 -0.6 4 Este 7 Nordeste 0 -- -- 95
2020-01-07 18:00:00 2.7 3 Oeste 7 Oeste 0 -- -- 82
2020-01-07 17:00:00 5.8 6 Oeste 10 Oeste 0 -- -- 70
2020-01-07 16:00:00 7.5 4 Oeste 8 Oeste 0 -- -- 69
2020-01-07 15:00:00 5.3 4 Oeste 12 Oeste 0 -- -- 76
2020-01-07 14:00:00 2.9 6 Oeste 10 Oeste 0 -- -- 96
2020-01-07 13:00:00 -0.7 3 Oeste 8 Noroeste 0 -- -- 96
2020-01-07 12:00:00 -1.5 0 Calma 3 Oeste 0.2 -- -- 96
2020-01-07 11:00:00 -2.9 0 Calma 2 Sur 0 -- -- 95
2020-01-07 10:00:00 -2.7 0 Calma 4 Oeste 0 -- -- 94
2020-01-07 09:00:00 -6.1 0 Calma 5 Oeste 0 -- -- 97
2020-01-07 08:00:00 -5.3 0 Calma 3 Norte 0 -- -- 98
2020-01-07 07:00:00 -4.5 0 Calma 4 Sudeste 0 -- -- 98
2020-01-07 06:00:00 -4 3 Oeste 4 Noroeste 0 -- -- 98
2020-01-07 05:00:00 -4.2 0 Calma 2 Nordeste 0 -- -- 98
2020-01-07 04:00:00 -3.4 0 Calma 3 Este 0 -- -- 99
2020-01-07 03:00:00 -3.9 0 Calma 7 Nordeste 0 -- -- 99
2020-01-07 02:00:00 -3.8 7 Nordeste 10 Nordeste 0 -- -- 99
2020-01-07 01:00:00 -3.1 3 Nordeste 7 Nordeste 0 -- -- 99
2020-01-07 00:00:00 -2.2 3 Nordeste 7 Nordeste 0 -- -- 99
2020-01-06 23:00:00 -1.7 0 Calma 4 Oeste 0 -- -- 100
2020-01-06 22:00:00 -1.4 0 Calma 3 Noroeste 0 -- -- 100
2020-01-06 21:00:00 -2.6 0 Calma 3 Oeste 0 -- -- 100
2020-01-06 20:00:00 -1.9 2 Sudoeste 5 Oeste 0 -- -- 99
2020-01-06 19:00:00 0 2 Oeste 7 Oeste 0 -- -- 97
2020-01-06 18:00:00 3.6 4 Oeste 8 Oeste 0 -- -- 83
2020-01-06 17:00:00 7.2 4 Oeste 12 Oeste 0 -- -- 69
2020-01-06 16:00:00 7.3 7 Oeste 11 Oeste 0 -- -- 73
2020-01-06 15:00:00 5.4 6 Oeste 10 Oeste 0 -- -- 93
2020-01-06 14:00:00 3.3 4 Oeste 9 Sur 0 -- -- 95
2020-01-06 13:00:00 0.8 3 Sur 8 Sudeste 0 -- -- 97
2020-01-06 12:00:00 -0.7 0 Calma -- -- 0 -- -- 100
2020-01-06 11:00:00 -2.3 0 Calma -- -- 0 -- -- 100
2020-01-06 10:00:00 -3.3 0 Calma -- -- 0 -- -- 99